createdAt,value
2017-12-05T00:01:23.615Z,20.93
2017-12-05T00:03:52.507Z,20.94
2017-12-05T00:06:19.896Z,20.90
2017-12-05T00:08:47.307Z,20.83
2017-12-05T00:11:14.675Z,20.85
2017-12-05T00:13:42.144Z,20.83
2017-12-05T00:16:10.664Z,20.78
2017-12-05T00:18:38.017Z,20.75
2017-12-05T00:21:05.361Z,20.83
2017-12-05T00:23:32.733Z,20.84
2017-12-05T00:26:00.333Z,20.77
2017-12-05T00:28:27.730Z,20.84
2017-12-05T00:30:55.068Z,20.80
2017-12-05T00:33:22.600Z,20.72
2017-12-05T00:35:50.074Z,20.70
2017-12-05T00:38:17.490Z,20.75
2017-12-05T00:40:44.904Z,20.76
2017-12-05T00:43:12.476Z,20.72
2017-12-05T00:45:39.919Z,20.68
2017-12-05T00:48:07.311Z,20.69
2017-12-05T00:50:34.710Z,20.66
2017-12-05T00:53:02.075Z,20.63
2017-12-05T00:55:29.795Z,20.64
2017-12-05T00:57:57.169Z,20.63
2017-12-05T01:00:24.967Z,20.63
2017-12-05T01:02:52.390Z,20.61
2017-12-05T01:05:19.762Z,20.54
2017-12-05T01:07:48.706Z,20.56
2017-12-05T01:10:16.179Z,20.54
2017-12-05T01:12:43.630Z,20.55
2017-12-05T01:15:17.337Z,20.60
2017-12-05T01:17:44.823Z,20.56
2017-12-05T01:20:12.359Z,20.60
2017-12-05T01:22:39.732Z,20.65
2017-12-05T01:25:07.092Z,20.57
2017-12-05T01:27:34.669Z,20.55
2017-12-05T01:30:02.156Z,20.50
2017-12-05T01:32:29.815Z,20.53
2017-12-05T01:34:57.308Z,20.45
2017-12-05T01:37:24.740Z,20.45
2017-12-05T01:39:52.098Z,20.51
2017-12-05T01:42:19.951Z,20.52
2017-12-05T01:44:47.522Z,20.47
2017-12-05T01:47:14.971Z,20.47
2017-12-05T01:49:42.670Z,20.42
2017-12-05T01:52:10.376Z,20.42
2017-12-05T01:54:37.765Z,20.42
2017-12-05T01:57:05.133Z,20.44
2017-12-05T01:59:32.567Z,20.39
2017-12-05T02:02:00.000Z,20.39
2017-12-05T02:04:27.667Z,20.42
2017-12-05T02:06:55.647Z,20.30
2017-12-05T02:09:23.047Z,20.24
2017-12-05T02:11:50.513Z,20.16
2017-12-05T02:14:17.888Z,20.14
2017-12-05T02:16:45.271Z,20.18
2017-12-05T02:19:13.903Z,20.10
2017-12-05T02:21:41.394Z,20.05
2017-12-05T02:24:08.799Z,20.04
2017-12-05T02:26:36.590Z,20.02
2017-12-05T02:29:04.000Z,20.04
2017-12-05T02:31:33.063Z,20.01
2017-12-05T02:34:00.438Z,20.12
2017-12-05T02:36:27.879Z,20.11
2017-12-05T02:38:56.931Z,20.06
2017-12-05T02:41:24.396Z,20.09
2017-12-05T02:43:51.742Z,20.12
2017-12-05T02:46:19.162Z,20.16
2017-12-05T02:48:48.413Z,20.16
2017-12-05T02:51:15.868Z,20.11
2017-12-05T02:53:43.222Z,20.16
2017-12-05T02:56:12.338Z,20.16
2017-12-05T02:58:39.806Z,20.30
2017-12-05T03:01:07.246Z,20.18
2017-12-05T03:03:36.052Z,20.21
2017-12-05T03:06:03.430Z,20.24
2017-12-05T03:08:30.860Z,20.34
2017-12-05T03:10:58.283Z,20.40
2017-12-05T03:13:25.766Z,20.33
2017-12-05T03:15:53.140Z,20.34
2017-12-05T03:18:21.948Z,20.31
2017-12-05T03:23:23.273Z,20.45
2017-12-05T03:25:50.667Z,20.36
2017-12-05T03:28:18.584Z,20.40
2017-12-05T03:30:45.997Z,20.35
2017-12-05T03:33:13.365Z,20.38
2017-12-05T03:35:40.915Z,20.33
2017-12-05T03:38:08.352Z,20.39
2017-12-05T03:40:35.968Z,20.40
2017-12-05T03:43:03.503Z,20.40
2017-12-05T03:45:30.853Z,20.43
2017-12-05T03:47:58.294Z,20.46
2017-12-05T03:50:26.584Z,20.45
2017-12-05T03:52:54.014Z,20.53
2017-12-05T03:55:21.385Z,20.52
2017-12-05T03:57:49.639Z,20.56
2017-12-05T04:00:17.076Z,20.60
2017-12-05T04:02:45.055Z,20.70
2017-12-05T04:05:13.000Z,20.77
2017-12-05T04:07:40.705Z,20.83
2017-12-05T04:10:08.391Z,20.91
2017-12-05T04:12:35.799Z,20.99
2017-12-05T04:15:03.278Z,21.06
2017-12-05T04:17:31.736Z,21.12
2017-12-05T04:19:59.187Z,21.12
2017-12-05T04:22:26.728Z,21.17
2017-12-05T04:24:54.221Z,21.22
2017-12-05T04:27:21.603Z,21.29
2017-12-05T04:29:49.054Z,21.38
2017-12-05T04:32:16.415Z,21.38
2017-12-05T04:34:43.784Z,21.41
2017-12-05T04:37:11.302Z,21.47
2017-12-05T04:39:38.954Z,21.49
2017-12-05T04:42:06.429Z,21.53
2017-12-05T04:44:33.811Z,21.55
2017-12-05T04:47:01.174Z,21.59
2017-12-05T04:49:28.681Z,21.62
2017-12-05T04:51:56.101Z,21.63
2017-12-05T04:54:23.768Z,21.68
2017-12-05T04:56:51.273Z,21.67
2017-12-05T04:59:18.849Z,21.78
2017-12-05T05:01:46.291Z,21.81
2017-12-05T05:04:13.754Z,21.81
2017-12-05T05:06:41.179Z,21.82
2017-12-05T05:09:08.614Z,21.83
2017-12-05T05:11:36.136Z,21.89
2017-12-05T05:14:03.607Z,21.90
2017-12-05T05:16:30.990Z,21.93
2017-12-05T05:18:58.516Z,21.94
2017-12-05T05:21:26.178Z,21.96
2017-12-05T05:23:53.990Z,22.00
2017-12-05T05:26:21.440Z,22.00
2017-12-05T05:28:49.059Z,22.08
2017-12-05T05:31:16.444Z,22.09
2017-12-05T05:33:44.087Z,22.09
2017-12-05T05:36:11.494Z,22.10
2017-12-05T05:38:39.268Z,22.10
2017-12-05T05:41:10.217Z,22.13
2017-12-05T05:43:37.622Z,22.14
2017-12-05T05:46:06.102Z,22.19
2017-12-05T05:48:33.458Z,22.23
2017-12-05T05:51:00.944Z,22.22
2017-12-05T05:53:28.334Z,22.23
2017-12-05T05:55:55.799Z,22.26
2017-12-05T05:58:23.193Z,22.28
2017-12-05T06:00:50.631Z,22.30
2017-12-05T06:03:18.059Z,22.34
2017-12-05T06:05:45.494Z,22.39
2017-12-05T06:08:12.874Z,22.35
2017-12-05T06:10:40.261Z,22.35
2017-12-05T06:13:07.727Z,22.42
2017-12-05T06:15:35.171Z,22.45
2017-12-05T06:18:02.660Z,22.43
2017-12-05T06:20:30.241Z,22.49
2017-12-05T06:22:57.660Z,22.47
2017-12-05T06:25:25.178Z,22.53
2017-12-05T06:27:52.655Z,22.54
2017-12-05T06:30:20.091Z,22.43
2017-12-05T06:32:47.556Z,22.53
2017-12-05T06:35:15.141Z,22.68
2017-12-05T06:37:42.579Z,22.67
2017-12-05T06:40:10.279Z,22.67
2017-12-05T06:42:37.726Z,22.68
2017-12-05T06:45:05.158Z,22.72
2017-12-05T06:47:32.550Z,22.77
2017-12-05T06:49:59.978Z,22.75
2017-12-05T06:52:27.364Z,22.81
2017-12-05T06:54:55.688Z,22.88
2017-12-05T06:57:23.156Z,22.83
2017-12-05T06:59:51.240Z,22.79
2017-12-05T07:02:18.717Z,22.77
2017-12-05T07:04:46.143Z,21.77
2017-12-05T07:07:13.598Z,21.67
2017-12-05T07:09:41.138Z,21.67
2017-12-05T07:12:08.719Z,21.72
2017-12-05T07:14:36.290Z,21.78
2017-12-05T07:17:03.856Z,21.93
2017-12-05T07:19:34.193Z,21.94
2017-12-05T07:22:01.704Z,22.08
2017-12-05T07:24:30.528Z,22.08
2017-12-05T07:26:58.704Z,22.17
2017-12-05T07:29:27.124Z,22.06
2017-12-05T07:31:54.915Z,22.22
2017-12-05T07:34:22.704Z,22.26
2017-12-05T07:36:50.422Z,22.59
2017-12-05T07:39:18.707Z,22.26
2017-12-05T07:41:50.333Z,22.19
2017-12-05T07:44:21.275Z,22.36
2017-12-05T07:46:53.567Z,22.26
2017-12-05T07:49:21.226Z,22.26
2017-12-05T07:51:50.919Z,22.20
2017-12-05T07:54:20.189Z,22.29
2017-12-05T07:56:48.613Z,22.28
2017-12-05T07:59:18.317Z,22.32
2017-12-05T08:01:46.189Z,22.36
2017-12-05T08:04:14.812Z,22.47
2017-12-05T08:06:51.505Z,22.58
2017-12-05T08:09:19.384Z,22.71
2017-12-05T08:11:52.556Z,22.56
2017-12-05T08:14:25.167Z,22.60
2017-12-05T08:16:54.194Z,22.70
2017-12-05T08:21:56.455Z,22.73
2017-12-05T08:24:24.313Z,22.71
2017-12-05T08:26:52.419Z,22.71
2017-12-05T08:29:25.430Z,22.64
2017-12-05T08:31:59.317Z,22.39
2017-12-05T08:34:28.251Z,22.32
2017-12-05T08:36:58.196Z,22.41
2017-12-05T08:39:26.453Z,22.40
2017-12-05T08:41:58.538Z,22.48
2017-12-05T08:44:26.751Z,22.38
2017-12-05T08:46:55.140Z,22.69
2017-12-05T08:49:23.018Z,22.63
2017-12-05T08:51:54.244Z,22.80
2017-12-05T08:54:23.520Z,22.59
2017-12-05T08:56:57.306Z,22.66
2017-12-05T08:59:26.593Z,22.42
2017-12-05T09:01:56.829Z,22.60
2017-12-05T09:04:31.026Z,22.86
2017-12-05T09:09:53.840Z,22.81
2017-12-05T09:12:21.674Z,22.70
2017-12-05T09:14:53.765Z,22.60
2017-12-05T09:17:21.349Z,22.88
2017-12-05T09:19:52.570Z,22.92
2017-12-05T09:22:23.297Z,22.94
2017-12-05T09:24:54.449Z,22.96
2017-12-05T09:35:19.306Z,22.82
2017-12-05T09:37:47.206Z,22.99
2017-12-05T09:40:14.703Z,22.83
2017-12-05T09:42:42.437Z,22.92
2017-12-05T09:45:11.058Z,23.10
2017-12-05T09:47:44.141Z,23.33
2017-12-05T09:50:18.883Z,23.28
2017-12-05T09:52:46.628Z,23.30
2017-12-05T09:55:15.692Z,23.02
2017-12-05T09:57:44.890Z,23.01
2017-12-05T10:00:14.708Z,23.16
2017-12-05T10:02:42.325Z,22.74
2017-12-05T10:05:11.915Z,22.97
2017-12-05T10:07:39.811Z,22.90
2017-12-05T10:10:07.595Z,22.97
2017-12-05T10:12:38.371Z,22.76
2017-12-05T10:15:07.381Z,22.95
2017-12-05T10:17:41.344Z,22.71
2017-12-05T10:20:11.914Z,22.89
2017-12-05T10:22:40.276Z,22.78
2017-12-05T10:25:08.757Z,22.87
2017-12-05T10:27:45.837Z,22.89
2017-12-05T10:30:20.017Z,23.02
2017-12-05T10:32:49.860Z,23.28
2017-12-05T10:35:17.481Z,23.17
2017-12-05T10:37:45.350Z,23.17
2017-12-05T10:40:18.016Z,23.37
2017-12-05T10:42:46.028Z,23.44
2017-12-05T10:45:13.568Z,23.45
2017-12-05T10:47:41.122Z,23.35
2017-12-05T10:50:09.122Z,23.36
2017-12-05T10:52:37.169Z,23.42
2017-12-05T10:55:11.186Z,23.49
2017-12-05T10:57:40.995Z,23.34
2017-12-05T11:00:08.567Z,23.37
2017-12-05T11:02:40.761Z,23.53
2017-12-05T11:05:09.156Z,23.44
2017-12-05T11:07:36.854Z,23.51
2017-12-05T11:10:04.333Z,23.46
2017-12-05T11:12:32.205Z,23.51
2017-12-05T11:14:59.937Z,23.31
2017-12-05T11:17:30.120Z,23.49
2017-12-05T11:19:58.923Z,23.45
2017-12-05T11:22:29.503Z,23.44
2017-12-05T11:25:04.444Z,23.54
2017-12-05T11:27:35.266Z,23.50
2017-12-05T11:30:03.858Z,23.65
2017-12-05T11:32:32.273Z,23.65
2017-12-05T11:35:01.144Z,23.64
2017-12-05T11:37:31.870Z,23.61
2017-12-05T11:40:01.635Z,23.62
2017-12-05T11:42:31.312Z,23.40
2017-12-05T11:45:01.175Z,23.59
2017-12-05T11:47:30.096Z,23.50
2017-12-05T11:49:58.443Z,23.60
2017-12-05T11:52:26.578Z,23.74
2017-12-05T11:54:55.053Z,23.70
2017-12-05T11:57:23.912Z,23.67
2017-12-05T11:59:53.698Z,23.21
2017-12-05T12:02:22.600Z,23.11
2017-12-05T12:04:50.356Z,23.07
2017-12-05T12:07:18.058Z,23.08
2017-12-05T12:09:45.588Z,23.19
2017-12-05T12:12:13.016Z,23.09
2017-12-05T12:14:41.534Z,23.19
2017-12-05T12:17:09.212Z,23.35
2017-12-05T12:19:38.802Z,23.11
2017-12-05T12:22:06.628Z,23.02
2017-12-05T12:24:34.192Z,23.13
2017-12-05T12:27:01.826Z,23.20
2017-12-05T12:29:29.951Z,23.53
2017-12-05T12:31:57.679Z,23.61
2017-12-05T12:34:27.408Z,23.70
2017-12-05T12:36:55.372Z,23.50
2017-12-05T12:39:23.188Z,23.70
2017-12-05T12:41:51.044Z,23.48
2017-12-05T12:44:19.199Z,23.46
2017-12-05T12:46:47.325Z,23.70
2017-12-05T12:49:14.841Z,23.70
2017-12-05T12:51:42.780Z,23.74
2017-12-05T12:54:10.361Z,23.52
2017-12-05T12:56:38.648Z,23.54
2017-12-05T12:59:07.721Z,23.31
2017-12-05T13:04:10.780Z,23.24
2017-12-05T13:06:38.365Z,23.51
2017-12-05T13:09:09.041Z,23.58
2017-12-05T13:11:36.576Z,23.67
2017-12-05T13:14:04.201Z,23.63
2017-12-05T13:16:32.058Z,23.55
2017-12-05T13:18:59.593Z,23.48
2017-12-05T13:21:27.329Z,23.56
2017-12-05T13:23:55.016Z,23.48
2017-12-05T13:26:22.731Z,23.61
2017-12-05T13:28:50.182Z,23.16
2017-12-05T13:31:17.677Z,23.28
2017-12-05T13:33:45.227Z,23.04
2017-12-05T13:36:12.776Z,23.08
2017-12-05T13:38:40.260Z,23.09
2017-12-05T13:41:08.319Z,23.24
2017-12-05T13:43:36.078Z,23.21
2017-12-05T13:46:03.615Z,23.12
2017-12-05T13:48:31.338Z,23.10
2017-12-05T13:50:58.902Z,23.05
2017-12-05T13:53:26.474Z,23.14
2017-12-05T13:55:55.460Z,23.00
2017-12-05T13:58:23.004Z,23.06
2017-12-05T14:00:50.465Z,23.01
2017-12-05T14:03:18.139Z,23.05
2017-12-05T14:05:45.925Z,23.06
2017-12-05T14:08:13.494Z,22.97
2017-12-05T14:10:41.208Z,23.42
2017-12-05T14:13:08.709Z,23.24
2017-12-05T14:15:36.137Z,23.35
2017-12-05T14:18:03.596Z,23.54
2017-12-05T14:20:31.105Z,23.57
2017-12-05T14:22:58.618Z,23.68
2017-12-05T14:25:26.174Z,23.50
2017-12-05T14:27:53.807Z,23.40
2017-12-05T14:30:21.271Z,23.85
2017-12-05T14:32:49.333Z,23.93
2017-12-05T14:35:17.328Z,23.83
2017-12-05T14:37:45.182Z,24.05
2017-12-05T14:40:12.631Z,24.19
2017-12-05T14:42:40.518Z,24.27
2017-12-05T14:45:08.051Z,24.25
2017-12-05T14:47:35.506Z,24.34
2017-12-05T14:50:03.112Z,24.41
2017-12-05T14:52:30.674Z,24.44
2017-12-05T14:54:58.393Z,24.40
2017-12-05T14:57:25.930Z,24.48
2017-12-05T14:59:53.316Z,24.46
2017-12-05T15:02:20.702Z,24.45
2017-12-05T15:04:48.199Z,24.48
2017-12-05T15:07:15.603Z,24.49
2017-12-05T15:09:43.039Z,24.34
2017-12-05T15:12:10.431Z,24.35
2017-12-05T15:14:37.968Z,24.37
2017-12-05T15:17:05.815Z,24.33
2017-12-05T15:19:33.476Z,24.34
2017-12-05T15:22:01.182Z,24.38
2017-12-05T15:24:28.640Z,24.21
2017-12-05T15:26:56.143Z,24.29
2017-12-05T15:29:23.598Z,24.22
2017-12-05T15:31:51.043Z,24.20
2017-12-05T15:34:18.517Z,24.19
2017-12-05T15:36:45.903Z,24.19
2017-12-05T15:39:13.350Z,24.02
2017-12-05T15:41:40.862Z,24.01
2017-12-05T15:44:08.316Z,24.09
2017-12-05T15:46:35.820Z,24.08
2017-12-05T15:49:03.489Z,24.10
2017-12-05T15:51:30.870Z,23.97
2017-12-05T15:53:58.324Z,24.03
2017-12-05T15:56:25.883Z,24.01
2017-12-05T15:58:53.283Z,23.95
2017-12-05T16:01:20.983Z,23.97
2017-12-05T16:03:48.377Z,23.99
2017-12-05T16:06:15.778Z,23.89
2017-12-05T16:08:43.368Z,23.85
2017-12-05T16:11:10.755Z,23.90
2017-12-05T16:13:38.194Z,23.83
2017-12-05T16:16:05.615Z,23.87
2017-12-05T16:18:32.971Z,23.83
2017-12-05T16:21:00.349Z,23.81
2017-12-05T16:23:28.050Z,23.68
2017-12-05T16:25:55.478Z,23.72
2017-12-05T16:28:22.858Z,23.74
2017-12-05T16:30:50.223Z,23.76
2017-12-05T16:33:17.653Z,23.73
2017-12-05T16:35:45.121Z,23.72
2017-12-05T16:38:12.515Z,23.75
2017-12-05T16:40:39.987Z,23.69
2017-12-05T16:43:07.367Z,23.66
2017-12-05T16:45:34.777Z,23.67
2017-12-05T16:48:02.246Z,23.66
2017-12-05T16:50:29.578Z,23.52
2017-12-05T16:52:56.987Z,23.57
2017-12-05T16:55:24.335Z,23.64
2017-12-05T16:57:51.697Z,23.55
2017-12-05T17:00:19.116Z,23.56
2017-12-05T17:02:46.486Z,23.57
2017-12-05T17:05:13.865Z,23.51
2017-12-05T17:07:41.259Z,23.46
2017-12-05T17:10:08.655Z,23.55
2017-12-05T17:12:36.058Z,23.44
2017-12-05T17:15:03.447Z,23.44
2017-12-05T17:17:30.810Z,23.50
2017-12-05T17:19:58.220Z,23.45
2017-12-05T17:22:25.615Z,23.43
2017-12-05T17:24:52.971Z,23.40
2017-12-05T17:27:20.317Z,23.40
2017-12-05T17:29:47.851Z,23.33
2017-12-05T17:32:15.222Z,23.30
2017-12-05T17:34:42.755Z,23.40
2017-12-05T17:37:10.123Z,23.36
2017-12-05T17:39:37.594Z,23.30
2017-12-05T17:42:05.043Z,23.27
2017-12-05T17:44:32.456Z,23.23
2017-12-05T17:46:59.850Z,23.22
2017-12-05T17:49:27.290Z,23.13
2017-12-05T17:51:54.701Z,23.20
2017-12-05T17:54:22.058Z,23.19
2017-12-05T17:56:49.436Z,23.18
2017-12-05T17:59:16.814Z,23.21
2017-12-05T18:01:44.194Z,23.14
2017-12-05T18:04:11.638Z,23.20
2017-12-05T18:06:39.072Z,23.24
2017-12-05T18:09:06.412Z,23.18
2017-12-05T18:11:33.851Z,23.11
2017-12-05T18:14:01.280Z,23.13
2017-12-05T18:16:28.824Z,23.13
2017-12-05T18:18:56.204Z,23.14
2017-12-05T18:21:23.704Z,23.11
2017-12-05T18:23:51.112Z,23.12
2017-12-05T18:26:18.614Z,23.10
2017-12-05T18:28:46.001Z,23.13
2017-12-05T18:31:13.491Z,23.10
2017-12-05T18:33:40.875Z,23.10
2017-12-05T18:36:08.366Z,23.10
2017-12-05T18:38:35.719Z,23.09
2017-12-05T18:41:03.059Z,23.09
2017-12-05T18:43:30.439Z,23.08
2017-12-05T18:45:57.854Z,23.08
2017-12-05T18:48:25.292Z,23.06
2017-12-05T18:50:52.635Z,23.06
2017-12-05T18:53:20.062Z,23.05
2017-12-05T18:55:47.414Z,23.05
2017-12-05T18:58:14.816Z,23.00
2017-12-05T19:00:42.166Z,23.02
2017-12-05T19:03:09.557Z,23.02
2017-12-05T19:05:36.975Z,23.00
2017-12-05T19:08:04.330Z,22.94
2017-12-05T19:10:31.747Z,22.99
2017-12-05T19:12:59.182Z,22.98
2017-12-05T19:15:26.701Z,22.94
2017-12-05T19:17:54.187Z,22.96
2017-12-05T19:20:21.567Z,22.89
2017-12-05T19:22:49.015Z,22.93
2017-12-05T19:25:16.411Z,22.92
2017-12-05T19:27:43.798Z,22.94
2017-12-05T19:30:11.206Z,22.91
2017-12-05T19:32:38.645Z,22.88
2017-12-05T19:35:06.035Z,22.84
2017-12-05T19:37:33.427Z,22.86
2017-12-05T19:40:00.838Z,22.83
2017-12-05T19:42:28.236Z,22.85
2017-12-05T19:44:55.644Z,22.83
2017-12-05T19:47:23.017Z,22.80
2017-12-05T19:49:50.531Z,22.80
2017-12-05T19:52:17.987Z,22.78
2017-12-05T19:54:45.389Z,22.74
2017-12-05T19:57:12.795Z,22.70
2017-12-05T19:59:40.214Z,22.68
2017-12-05T20:02:07.622Z,22.71
2017-12-05T20:04:35.077Z,22.57
2017-12-05T20:07:02.478Z,22.47
2017-12-05T20:09:29.831Z,22.40
2017-12-05T20:11:57.203Z,22.39
2017-12-05T20:14:24.583Z,22.31
2017-12-05T20:16:52.194Z,22.28
2017-12-05T20:19:19.594Z,22.33
2017-12-05T20:21:47.004Z,22.23
2017-12-05T20:24:14.406Z,22.19
2017-12-05T20:26:41.799Z,22.23
2017-12-05T20:29:09.207Z,22.21
2017-12-05T20:31:36.690Z,22.14
2017-12-05T20:34:04.042Z,22.03
2017-12-05T20:36:31.520Z,22.09
2017-12-05T20:38:58.905Z,22.07
2017-12-05T20:41:26.304Z,22.02
2017-12-05T20:43:53.726Z,22.01
2017-12-05T20:46:21.157Z,21.94
2017-12-05T20:48:48.518Z,21.90
2017-12-05T20:51:15.922Z,21.87
2017-12-05T20:53:43.374Z,21.88
2017-12-05T20:56:10.778Z,21.93
2017-12-05T20:58:38.153Z,21.80
2017-12-05T21:01:05.560Z,21.79
2017-12-05T21:03:32.985Z,21.80
2017-12-05T21:06:00.377Z,21.76
2017-12-05T21:08:27.743Z,21.73
2017-12-05T21:10:55.152Z,21.67
2017-12-05T21:13:22.552Z,21.60
2017-12-05T21:15:49.919Z,21.67
2017-12-05T21:18:17.284Z,21.67
2017-12-05T21:20:44.689Z,21.61
2017-12-05T21:23:12.079Z,21.58
2017-12-05T21:25:39.480Z,21.60
2017-12-05T21:28:06.896Z,21.56
2017-12-05T21:30:34.307Z,21.48
2017-12-05T21:33:01.745Z,21.49
2017-12-05T21:35:29.162Z,21.44
2017-12-05T21:37:56.574Z,21.53
2017-12-05T21:40:23.909Z,21.52
2017-12-05T21:42:51.261Z,21.43
2017-12-05T21:45:18.642Z,21.47
2017-12-05T21:47:46.029Z,21.46
2017-12-05T21:50:13.481Z,21.48
2017-12-05T21:52:40.884Z,21.40
2017-12-05T21:55:08.227Z,21.39
2017-12-05T21:57:35.608Z,21.38
2017-12-05T22:00:02.960Z,21.36
2017-12-05T22:02:30.361Z,21.29
2017-12-05T22:04:57.745Z,21.32
2017-12-05T22:07:25.082Z,21.30
2017-12-05T22:09:52.507Z,21.27
2017-12-05T22:12:19.886Z,21.21
2017-12-05T22:14:47.334Z,21.24
2017-12-05T22:17:14.740Z,21.15
2017-12-05T22:19:42.087Z,21.31
2017-12-05T22:22:09.494Z,21.22
2017-12-05T22:24:36.831Z,21.16
2017-12-05T22:27:04.303Z,21.19
2017-12-05T22:29:31.752Z,21.12
2017-12-05T22:31:59.187Z,21.14
2017-12-05T22:34:26.527Z,21.08
2017-12-05T22:36:53.896Z,21.11
2017-12-05T22:39:21.289Z,21.11
2017-12-05T22:41:48.731Z,21.10
2017-12-05T22:44:16.191Z,21.11
2017-12-05T22:46:43.540Z,21.05
2017-12-05T22:49:10.928Z,21.05
2017-12-05T22:51:38.278Z,21.10
2017-12-05T22:54:05.614Z,21.05
2017-12-05T22:56:32.995Z,21.04
2017-12-05T22:59:00.331Z,21.05
2017-12-05T23:01:27.799Z,21.04
2017-12-05T23:03:55.184Z,21.01
2017-12-05T23:06:22.522Z,20.97
2017-12-05T23:08:49.924Z,20.95
2017-12-05T23:11:17.320Z,20.98
2017-12-05T23:13:44.697Z,20.96
2017-12-05T23:16:12.188Z,20.93
2017-12-05T23:18:39.573Z,20.88
2017-12-05T23:21:06.915Z,20.93
2017-12-05T23:23:34.287Z,20.96
2017-12-05T23:26:01.619Z,20.95
2017-12-05T23:28:29.004Z,20.90
2017-12-05T23:30:56.378Z,20.87
2017-12-05T23:33:23.782Z,20.86
2017-12-05T23:35:51.138Z,20.91
2017-12-05T23:38:18.517Z,20.95
2017-12-05T23:40:45.874Z,20.88
2017-12-05T23:43:13.267Z,20.89
2017-12-05T23:45:40.642Z,20.84
2017-12-05T23:48:07.994Z,20.91
2017-12-05T23:50:35.983Z,20.81
2017-12-05T23:53:03.319Z,20.78
2017-12-05T23:55:30.699Z,20.80
2017-12-05T23:57:58.074Z,20.82
